createdAt,value
2022-10-18T00:01:51.888Z,9.21
2022-10-18T00:04:54.847Z,9.19
2022-10-18T00:07:57.670Z,9.15
2022-10-18T00:11:00.389Z,9.12
2022-10-18T00:14:03.214Z,9.03
2022-10-18T00:17:06.029Z,9.00
2022-10-18T00:20:11.660Z,8.97
2022-10-18T00:23:14.499Z,8.98
2022-10-18T00:26:20.976Z,9.15
2022-10-18T00:29:24.104Z,9.23
2022-10-18T00:32:27.708Z,9.38
2022-10-18T00:35:30.664Z,9.38
2022-10-18T00:38:33.376Z,9.43
2022-10-18T00:41:38.284Z,9.42
2022-10-18T00:44:41.009Z,9.39
2022-10-18T00:47:48.208Z,9.33
2022-10-18T00:50:53.137Z,9.26
2022-10-18T00:53:55.848Z,9.20
2022-10-18T00:56:59.094Z,9.21
2022-10-18T01:00:02.620Z,9.15
2022-10-18T01:03:06.045Z,9.08
2022-10-18T01:06:09.658Z,9.11
2022-10-18T01:09:32.577Z,8.97
2022-10-18T01:12:56.879Z,8.95
2022-10-18T01:16:17.826Z,8.93
2022-10-18T01:19:46.938Z,8.91
2022-10-18T01:23:04.822Z,8.85
2022-10-18T01:26:29.400Z,8.82
2022-10-18T01:29:57.057Z,8.81
2022-10-18T01:33:11.463Z,8.71
2022-10-18T01:36:29.699Z,8.82
2022-10-18T01:39:38.372Z,8.86
2022-10-18T01:42:41.257Z,8.88
2022-10-18T01:45:44.035Z,8.86
2022-10-18T01:48:47.679Z,8.83
2022-10-18T01:51:50.709Z,9.00
2022-10-18T01:54:55.830Z,8.87
2022-10-18T01:58:28.181Z,8.76
2022-10-18T02:01:49.144Z,8.74
2022-10-18T02:04:59.212Z,8.56
2022-10-18T02:08:22.787Z,8.48
2022-10-18T02:11:29.699Z,8.31
2022-10-18T02:14:33.389Z,8.30
2022-10-18T02:17:37.993Z,8.21
2022-10-18T02:20:42.232Z,8.18
2022-10-18T02:23:46.956Z,8.07
2022-10-18T02:26:50.106Z,8.04
2022-10-18T02:29:53.307Z,7.91
2022-10-18T02:33:04.519Z,7.82
2022-10-18T02:36:18.373Z,7.78
2022-10-18T02:39:29.694Z,7.70
2022-10-18T02:42:37.509Z,7.67
2022-10-18T02:45:40.558Z,7.68
2022-10-18T02:48:43.321Z,7.60
2022-10-18T02:51:46.444Z,7.60
2022-10-18T02:54:49.155Z,7.61
2022-10-18T02:57:52.351Z,7.54
2022-10-18T03:00:58.269Z,7.52
2022-10-18T03:04:02.015Z,7.55
2022-10-18T03:07:04.882Z,7.52
2022-10-18T03:10:08.226Z,7.52
2022-10-18T03:13:11.072Z,7.42
2022-10-18T03:16:13.971Z,7.45
2022-10-18T03:19:16.757Z,7.41
2022-10-18T03:22:19.644Z,7.35
2022-10-18T03:25:22.412Z,7.31
2022-10-18T03:28:25.311Z,7.30
2022-10-18T03:31:28.369Z,7.52
2022-10-18T03:34:31.133Z,7.77
2022-10-18T03:37:34.026Z,7.82
2022-10-18T03:40:37.294Z,7.90
2022-10-18T03:43:40.508Z,7.91
2022-10-18T03:46:43.246Z,7.90
2022-10-18T03:49:46.028Z,7.80
2022-10-18T03:52:48.740Z,7.69
2022-10-18T03:55:53.086Z,7.70
2022-10-18T03:58:57.243Z,7.62
2022-10-18T04:02:00.226Z,7.43
2022-10-18T04:05:03.259Z,7.43
2022-10-18T04:08:06.071Z,7.27
2022-10-18T04:11:10.946Z,7.16
2022-10-18T04:14:13.835Z,7.09
2022-10-18T04:17:16.806Z,7.12
2022-10-18T04:20:20.278Z,7.27
2022-10-18T04:23:23.136Z,7.33
2022-10-18T04:26:26.179Z,7.37
2022-10-18T04:29:28.990Z,7.35
2022-10-18T04:32:31.895Z,7.42
2022-10-18T04:35:34.620Z,7.31
2022-10-18T04:38:37.371Z,7.30
2022-10-18T04:41:40.183Z,7.27
2022-10-18T04:44:43.006Z,7.27
2022-10-18T04:47:45.734Z,7.27
2022-10-18T04:50:49.998Z,7.13
2022-10-18T04:53:52.780Z,7.02
2022-10-18T04:56:55.727Z,6.89
2022-10-18T04:59:58.700Z,6.86
2022-10-18T05:03:01.420Z,6.86
2022-10-18T05:06:05.530Z,6.83
2022-10-18T05:09:08.492Z,6.84
2022-10-18T05:12:11.271Z,6.78
2022-10-18T05:15:14.138Z,6.86
2022-10-18T05:18:17.021Z,6.81
2022-10-18T05:21:19.869Z,6.88
2022-10-18T05:24:25.473Z,6.78
2022-10-18T05:27:30.621Z,6.81
2022-10-18T05:30:33.999Z,6.76
2022-10-18T05:33:37.785Z,6.80
2022-10-18T05:36:40.658Z,6.90
2022-10-18T05:39:43.525Z,7.01
2022-10-18T05:42:46.272Z,7.03
2022-10-18T05:45:50.397Z,7.05
2022-10-18T05:48:53.155Z,7.13
2022-10-18T05:51:58.886Z,7.23
2022-10-18T05:55:03.854Z,7.25
2022-10-18T05:58:06.924Z,7.40
2022-10-18T06:01:11.770Z,7.61
2022-10-18T06:04:14.939Z,7.75
2022-10-18T06:07:17.715Z,7.82
2022-10-18T06:10:23.522Z,7.90
2022-10-18T06:13:26.644Z,8.10
2022-10-18T06:16:32.397Z,8.12
2022-10-18T06:19:39.867Z,8.15
2022-10-18T06:22:43.883Z,8.23
2022-10-18T06:25:46.726Z,8.37
2022-10-18T06:28:50.511Z,8.48
2022-10-18T06:31:53.589Z,8.64
2022-10-18T06:35:03.230Z,8.73
2022-10-18T06:38:06.439Z,9.60
2022-10-18T06:41:10.446Z,12.54
2022-10-18T06:44:14.573Z,14.53
2022-10-18T06:47:17.412Z,15.72
2022-10-18T06:50:20.295Z,16.62
2022-10-18T06:53:25.547Z,17.22
2022-10-18T06:56:28.766Z,17.96
2022-10-18T06:59:31.885Z,19.13
2022-10-18T07:02:35.010Z,19.53
2022-10-18T07:05:38.518Z,20.06
2022-10-18T07:08:44.894Z,20.62
2022-10-18T07:11:48.034Z,20.67
2022-10-18T07:14:50.983Z,23.13
2022-10-18T07:17:53.736Z,21.49
2022-10-18T07:20:57.448Z,23.00
2022-10-18T07:24:00.242Z,23.35
2022-10-18T07:27:03.087Z,22.98
2022-10-18T07:30:07.814Z,23.17
2022-10-18T07:33:11.473Z,24.71
2022-10-18T07:36:15.888Z,25.45
2022-10-18T07:39:19.281Z,26.06
2022-10-18T07:42:22.380Z,26.14
2022-10-18T07:45:25.506Z,26.46
2022-10-18T07:48:28.934Z,27.02
2022-10-18T07:51:33.004Z,27.37
2022-10-18T07:54:35.916Z,27.70
2022-10-18T07:57:38.749Z,27.97
2022-10-18T08:00:42.154Z,27.72
2022-10-18T08:03:45.034Z,26.85
2022-10-18T08:06:47.953Z,25.42
2022-10-18T08:09:50.891Z,27.34
2022-10-18T08:12:54.519Z,28.53
2022-10-18T08:16:06.295Z,29.68
2022-10-18T08:19:09.172Z,29.26
2022-10-18T08:22:11.967Z,29.40
2022-10-18T08:25:15.639Z,29.47
2022-10-18T08:28:18.348Z,29.65
2022-10-18T08:31:21.162Z,29.12
2022-10-18T08:34:24.149Z,29.07
2022-10-18T08:37:27.010Z,29.19
2022-10-18T08:40:34.859Z,30.21
2022-10-18T08:43:47.337Z,29.64
2022-10-18T08:46:53.095Z,28.15
2022-10-18T08:50:07.707Z,31.08
2022-10-18T08:53:21.121Z,30.69
2022-10-18T08:56:27.946Z,30.24
2022-10-18T09:09:41.906Z,30.09
2022-10-18T09:13:55.099Z,30.40
2022-10-18T09:17:27.297Z,31.69
2022-10-18T09:21:00.245Z,31.55
2022-10-18T09:24:17.140Z,30.61
2022-10-18T09:27:22.718Z,31.16
2022-10-18T09:30:49.897Z,32.08
2022-10-18T09:34:06.349Z,30.45
2022-10-18T09:37:16.285Z,31.76
2022-10-18T09:40:26.893Z,32.61
2022-10-18T09:44:00.782Z,33.01
2022-10-18T09:47:16.853Z,31.69
2022-10-18T09:50:28.122Z,32.08
2022-10-18T09:53:37.103Z,32.46
2022-10-18T09:56:47.619Z,32.81
2022-10-18T09:59:55.057Z,33.56
2022-10-18T10:03:00.622Z,30.92
2022-10-18T10:06:16.809Z,32.27
2022-10-18T10:09:26.965Z,31.17
2022-10-18T10:12:32.698Z,32.89
2022-10-18T10:15:38.206Z,34.13
2022-10-18T10:18:43.879Z,33.50
2022-10-18T10:21:50.328Z,34.10
2022-10-18T10:24:54.984Z,34.26
2022-10-18T10:28:20.394Z,33.41
2022-10-18T10:31:46.035Z,33.41
2022-10-18T10:34:49.424Z,33.02
2022-10-18T10:37:54.652Z,34.77
2022-10-18T10:40:59.791Z,32.28
2022-10-18T10:44:08.848Z,33.33
2022-10-18T10:47:33.248Z,33.60
2022-10-18T10:50:54.413Z,34.22
2022-10-18T10:54:05.994Z,34.16
2022-10-18T10:57:12.749Z,34.24
2022-10-18T11:00:34.396Z,36.13
2022-10-18T11:03:37.435Z,35.58
2022-10-18T11:06:55.993Z,33.03
2022-10-18T11:10:12.848Z,35.59
2022-10-18T11:13:31.663Z,33.55
2022-10-18T11:17:07.698Z,34.07
2022-10-18T11:20:23.561Z,34.92
2022-10-18T11:23:32.374Z,34.91
2022-10-18T11:27:01.383Z,34.01
2022-10-18T11:30:35.087Z,31.79
2022-10-18T11:34:10.073Z,31.81
2022-10-18T11:38:06.451Z,29.21
2022-10-18T11:41:31.793Z,33.08
2022-10-18T11:45:02.951Z,34.22
2022-10-18T11:48:06.218Z,34.50
2022-10-18T11:51:34.169Z,34.64
2022-10-18T11:55:05.325Z,34.20
2022-10-18T11:58:18.445Z,35.11
2022-10-18T12:01:33.331Z,35.29
2022-10-18T12:04:53.062Z,34.13
2022-10-18T12:08:47.602Z,35.05
2022-10-18T12:12:02.757Z,35.43
2022-10-18T12:15:20.313Z,33.96
2022-10-18T12:18:30.407Z,35.22
2022-10-18T12:21:34.668Z,32.41
2022-10-18T12:24:38.037Z,33.87
2022-10-18T12:27:49.739Z,31.99
2022-10-18T12:31:27.269Z,31.84
2022-10-18T12:34:43.990Z,33.79
2022-10-18T12:38:00.133Z,34.30
2022-10-18T12:41:04.410Z,33.62
2022-10-18T12:44:25.669Z,34.69
2022-10-18T12:47:30.458Z,33.51
2022-10-18T12:50:37.790Z,31.24
2022-10-18T12:53:42.414Z,33.18
2022-10-18T12:56:47.705Z,33.67
2022-10-18T12:59:50.758Z,30.63
2022-10-18T13:03:19.135Z,33.06
2022-10-18T13:06:23.652Z,34.06
2022-10-18T13:09:30.988Z,31.40
2022-10-18T13:12:58.876Z,32.01
2022-10-18T13:16:24.025Z,32.39
2022-10-18T13:19:32.876Z,32.55
2022-10-18T13:23:08.294Z,32.11
2022-10-18T13:26:26.927Z,32.50
2022-10-18T13:29:40.979Z,31.19
2022-10-18T13:33:08.656Z,31.49
2022-10-18T13:36:22.583Z,31.93
2022-10-18T13:39:27.312Z,32.15
2022-10-18T13:42:33.007Z,31.38
2022-10-18T13:45:54.700Z,31.43
2022-10-18T13:49:06.629Z,30.69
2022-10-18T13:52:27.607Z,31.55
2022-10-18T13:56:11.835Z,30.09
2022-10-18T13:59:37.852Z,29.55
2022-10-18T14:02:58.694Z,30.62
2022-10-18T14:06:10.471Z,30.25
2022-10-18T14:12:50.095Z,29.73
2022-10-18T14:16:00.261Z,27.93
2022-10-18T14:19:15.159Z,26.93
2022-10-18T14:22:54.923Z,28.04
2022-10-18T14:26:15.106Z,28.60
2022-10-18T14:29:20.731Z,28.31
2022-10-18T14:32:29.387Z,25.83
2022-10-18T14:35:35.843Z,23.92
2022-10-18T14:39:06.314Z,22.56
2022-10-18T14:42:20.884Z,22.03
2022-10-18T14:45:24.502Z,22.29
2022-10-18T14:48:27.455Z,21.77
2022-10-18T14:51:35.701Z,21.36
2022-10-18T14:54:38.883Z,21.08
2022-10-18T14:57:41.792Z,20.99
2022-10-18T15:00:48.478Z,20.77
2022-10-18T15:03:57.529Z,20.49
2022-10-18T15:07:06.872Z,20.26
2022-10-18T15:10:35.297Z,20.07
2022-10-18T15:13:48.034Z,19.95
2022-10-18T15:16:54.223Z,19.79
2022-10-18T15:20:06.232Z,19.58
2022-10-18T15:23:24.019Z,19.43
2022-10-18T15:26:30.939Z,19.24
2022-10-18T15:29:36.879Z,19.02
2022-10-18T15:32:49.096Z,18.80
2022-10-18T15:35:54.098Z,18.61
2022-10-18T15:39:18.561Z,18.32
2022-10-18T15:42:38.441Z,18.04
2022-10-18T15:49:18.511Z,17.63
2022-10-18T15:52:37.487Z,17.39
2022-10-18T15:55:45.420Z,17.14
2022-10-18T15:58:49.071Z,16.94
2022-10-18T16:01:52.165Z,16.77
2022-10-18T16:04:55.474Z,16.59
2022-10-18T16:07:58.426Z,16.38
2022-10-18T16:11:01.201Z,16.20
2022-10-18T16:14:03.982Z,16.06
2022-10-18T16:17:07.428Z,15.88
2022-10-18T16:20:20.329Z,15.69
2022-10-18T16:23:26.676Z,15.56
2022-10-18T16:26:29.806Z,15.41
2022-10-18T16:29:33.394Z,15.25
2022-10-18T16:32:36.146Z,15.10
2022-10-18T16:35:38.987Z,15.02
2022-10-18T16:38:42.165Z,14.92
2022-10-18T16:41:45.683Z,14.83
2022-10-18T16:44:49.256Z,14.77
2022-10-18T16:47:52.063Z,14.70
2022-10-18T16:50:56.847Z,14.48
2022-10-18T16:53:59.616Z,14.39
2022-10-18T16:57:02.468Z,14.26
2022-10-18T17:00:05.572Z,14.22
2022-10-18T17:03:10.133Z,14.20
2022-10-18T17:06:22.313Z,14.05
2022-10-18T17:09:25.137Z,13.88
2022-10-18T17:12:28.041Z,13.75
2022-10-18T17:15:32.946Z,13.63
2022-10-18T17:18:37.936Z,13.51
2022-10-18T17:21:40.734Z,13.42
2022-10-18T17:24:43.470Z,13.30
2022-10-18T17:27:46.982Z,13.21
2022-10-18T17:30:56.905Z,13.07
2022-10-18T17:34:02.172Z,13.07
2022-10-18T17:37:05.703Z,12.95
2022-10-18T17:40:09.874Z,12.97
2022-10-18T17:43:14.017Z,12.95
2022-10-18T17:46:18.001Z,12.95
2022-10-18T17:49:22.262Z,12.80
2022-10-18T17:52:25.246Z,12.58
2022-10-18T17:55:30.288Z,12.56
2022-10-18T17:58:33.529Z,12.39
2022-10-18T18:01:36.521Z,12.32
2022-10-18T18:04:39.380Z,12.26
2022-10-18T18:07:42.374Z,12.17
2022-10-18T18:10:45.375Z,12.03
2022-10-18T18:13:48.228Z,12.04
2022-10-18T18:16:51.216Z,11.98
2022-10-18T18:19:54.310Z,11.86
2022-10-18T18:22:57.096Z,11.82
2022-10-18T18:26:00.891Z,11.71
2022-10-18T18:29:04.181Z,11.69
2022-10-18T18:32:08.163Z,11.63
2022-10-18T18:35:11.893Z,11.55
2022-10-18T18:38:14.764Z,11.48
2022-10-18T18:41:23.210Z,11.37
2022-10-18T18:44:26.052Z,11.27
2022-10-18T18:47:28.839Z,11.26
2022-10-18T18:50:32.026Z,11.18
2022-10-18T18:53:35.124Z,11.12
2022-10-18T18:56:38.285Z,11.03
2022-10-18T18:59:41.247Z,11.04
2022-10-18T19:02:44.054Z,11.06
2022-10-18T19:05:46.841Z,10.94
2022-10-18T19:08:50.391Z,10.83
2022-10-18T19:11:55.698Z,10.73
2022-10-18T19:14:58.409Z,10.73
2022-10-18T19:18:01.273Z,10.68
2022-10-18T19:21:04.240Z,10.52
2022-10-18T19:24:07.575Z,10.37
2022-10-18T19:27:14.375Z,10.30
2022-10-18T19:30:19.929Z,10.21
2022-10-18T19:33:41.144Z,10.18
2022-10-18T19:36:48.867Z,10.29
2022-10-18T19:39:51.751Z,10.29
2022-10-18T19:42:54.511Z,10.33
2022-10-18T19:46:02.752Z,10.32
2022-10-18T19:49:05.786Z,10.29
2022-10-18T19:52:08.971Z,10.29
2022-10-18T19:55:11.824Z,10.13
2022-10-18T19:58:14.711Z,10.09
2022-10-18T20:01:18.700Z,9.99
2022-10-18T20:04:21.854Z,9.88
2022-10-18T20:07:24.704Z,9.86
2022-10-18T20:10:31.057Z,9.78
2022-10-18T20:13:34.130Z,9.74
2022-10-18T20:16:37.144Z,9.58
2022-10-18T20:19:40.021Z,9.55
2022-10-18T20:22:42.733Z,9.48
2022-10-18T20:25:58.604Z,9.57
2022-10-18T20:29:01.590Z,9.51
2022-10-18T20:32:04.537Z,9.44
2022-10-18T20:35:07.455Z,9.38
2022-10-18T20:38:10.321Z,9.37
2022-10-18T20:41:22.757Z,9.34
2022-10-18T20:44:27.005Z,9.26
2022-10-18T20:47:30.423Z,9.22
2022-10-18T20:50:33.963Z,9.16
2022-10-18T20:53:37.677Z,9.11
2022-10-18T20:56:40.500Z,9.02
2022-10-18T20:59:43.246Z,9.02
2022-10-18T21:02:46.019Z,8.98
2022-10-18T21:05:48.829Z,8.96
2022-10-18T21:08:57.005Z,9.03
2022-10-18T21:12:00.057Z,9.06
2022-10-18T21:15:02.876Z,9.12
2022-10-18T21:18:06.633Z,9.07
2022-10-18T21:21:16.168Z,9.18
2022-10-18T21:24:20.000Z,9.02
2022-10-18T21:27:25.931Z,8.97
2022-10-18T21:30:29.121Z,8.82
2022-10-18T21:33:31.862Z,8.68
2022-10-18T21:36:36.638Z,8.61
2022-10-18T21:39:39.350Z,8.52
2022-10-18T21:42:42.137Z,8.44
2022-10-18T21:45:44.934Z,8.36
2022-10-18T21:48:51.661Z,8.39
2022-10-18T21:51:54.483Z,8.40
2022-10-18T21:54:57.280Z,8.41
2022-10-18T21:58:00.108Z,8.43
2022-10-18T22:01:23.874Z,8.38
2022-10-18T22:04:26.735Z,8.33
2022-10-18T22:07:29.456Z,8.30
2022-10-18T22:10:33.577Z,8.29
2022-10-18T22:13:36.348Z,8.29
2022-10-18T22:16:39.335Z,8.28
2022-10-18T22:19:43.592Z,8.24
2022-10-18T22:22:46.552Z,8.25
2022-10-18T22:25:50.407Z,8.24
2022-10-18T22:29:02.387Z,8.15
2022-10-18T22:32:05.332Z,8.21
2022-10-18T22:35:08.101Z,8.16
2022-10-18T22:38:10.789Z,8.09
2022-10-18T22:41:13.842Z,8.11
2022-10-18T22:44:16.725Z,8.09
2022-10-18T22:47:19.550Z,7.99
2022-10-18T22:50:23.202Z,7.96
2022-10-18T22:53:27.115Z,7.95
2022-10-18T22:56:30.105Z,7.95
2022-10-18T22:59:33.524Z,7.94
2022-10-18T23:02:36.549Z,7.94
2022-10-18T23:05:41.058Z,7.97
2022-10-18T23:08:43.940Z,8.00
2022-10-18T23:11:48.303Z,7.90
2022-10-18T23:14:51.246Z,7.85
2022-10-18T23:17:55.050Z,7.81
2022-10-18T23:21:07.415Z,7.82
2022-10-18T23:24:10.248Z,7.78
2022-10-18T23:27:13.022Z,7.74
2022-10-18T23:30:25.363Z,7.54
2022-10-18T23:33:28.100Z,7.56
2022-10-18T23:36:33.163Z,7.46
2022-10-18T23:39:35.965Z,7.44
2022-10-18T23:42:38.949Z,7.42
2022-10-18T23:45:42.593Z,7.37
2022-10-18T23:48:46.362Z,7.41
2022-10-18T23:51:49.229Z,7.26
2022-10-18T23:54:51.918Z,7.15
2022-10-18T23:57:54.684Z,7.10
